sensor_id;sensor_type;location;lat;lon;timestamp;P1;P2;P0
72918;PMS7003;68407;55.694;26.994;2023-07-02T00:02:53;5.5;4.3;3
72918;PMS7003;68407;55.694;26.994;2023-07-02T00:07:53;4.6;4.4;3.4
72918;PMS7003;68407;55.694;26.994;2023-07-02T00:12:37;4.4;4;3
72918;PMS7003;68407;55.694;26.994;2023-07-02T00:17:13;5.4;4.4;3.6
72918;PMS7003;68407;55.694;26.994;2023-07-02T00:22:37;5.2;4.2;3.4
72918;PMS7003;68407;55.694;26.994;2023-07-02T00:27:53;5.2;5;3.6
72918;PMS7003;68407;55.694;26.994;2023-07-02T00:32:37;5;4.4;3.4
72918;PMS7003;68407;55.694;26.994;2023-07-02T00:37:27;5.6;4;3.4
72918;PMS7003;68407;55.694;26.994;2023-07-02T00:42:51;6.2;5.2;3.8
72918;PMS7003;68407;55.694;26.994;2023-07-02T00:47:19;5.6;4;3.2
72918;PMS7003;68407;55.694;26.994;2023-07-02T00:52:13;4.4;3.8;3.2
72918;PMS7003;68407;55.694;26.994;2023-07-02T00:57:13;3.6;2.8;2.2
72918;PMS7003;68407;55.694;26.994;2023-07-02T01:02:37;4.4;3;2.2
72918;PMS7003;68407;55.694;26.994;2023-07-02T01:07:37;3.5;2.8;2.3
72918;PMS7003;68407;55.694;26.994;2023-07-02T01:12:37;5;3.8;3.2
72918;PMS7003;68407;55.694;26.994;2023-07-02T01:17:28;3.4;2.6;2
72918;PMS7003;68407;55.694;26.994;2023-07-02T01:22:06;5;3.8;2.6
72918;PMS7003;68407;55.694;26.994;2023-07-02T01:27:29;3.2;2.8;1.8
72918;PMS7003;68407;55.694;26.994;2023-07-02T01:32:13;3.8;3.2;2.4
72918;PMS7003;68407;55.694;26.994;2023-07-02T01:37:27;4.4;3;2.4
72918;PMS7003;68407;55.694;26.994;2023-07-02T01:42:37;3.8;2.6;2
72918;PMS7003;68407;55.694;26.994;2023-07-02T01:47:53;2.8;2.4;1.8
72918;PMS7003;68407;55.694;26.994;2023-07-02T01:52:06;2.4;1.6;0.8
72918;PMS7003;68407;55.694;26.994;2023-07-02T01:57:13;2.4;2.2;1.2
72918;PMS7003;68407;55.694;26.994;2023-07-02T02:02:37;2.4;2;1.8
72918;PMS7003;68407;55.694;26.994;2023-07-02T02:07:13;1.8;1;1
72918;PMS7003;68407;55.694;26.994;2023-07-02T02:12:27;1.2;1;1
72918;PMS7003;68407;55.694;26.994;2023-07-02T02:17:43;1.2;1;0.6
72918;PMS7003;68407;55.694;26.994;2023-07-02T02:22:53;1.6;1.6;1
72918;PMS7003;68407;55.694;26.994;2023-07-02T02:27:05;2;1.8;1.4
72918;PMS7003;68407;55.694;26.994;2023-07-02T02:32:06;2;1.2;0.8
72918;PMS7003;68407;55.694;26.994;2023-07-02T02:37:53;2.2;1.4;0.8
72918;PMS7003;68407;55.694;26.994;2023-07-02T02:42:43;2;1.2;0.8
72918;PMS7003;68407;55.694;26.994;2023-07-02T02:47:05;1.6;1.4;1
72918;PMS7003;68407;55.694;26.994;2023-07-02T02:52:37;1.2;0.8;0.6
72918;PMS7003;68407;55.694;26.994;2023-07-02T02:57:53;2.2;1.2;0.8
72918;PMS7003;68407;55.694;26.994;2023-07-02T03:02:13;1.6;1.6;1
72918;PMS7003;68407;55.694;26.994;2023-07-02T03:07:05;1.3;0.8;0.5
72918;PMS7003;68407;55.694;26.994;2023-07-02T03:12:37;2;1.2;1
72918;PMS7003;68407;55.694;26.994;2023-07-02T03:17:43;1.6;0.8;0.8
72918;PMS7003;68407;55.694;26.994;2023-07-02T03:22:53;2.8;2.2;1
72918;PMS7003;68407;55.694;26.994;2023-07-02T03:27:27;2.2;1.6;1.2
72918;PMS7003;68407;55.694;26.994;2023-07-02T03:32:06;3.4;2.4;1.6
72918;PMS7003;68407;55.694;26.994;2023-07-02T03:37:07;2;1.4;1
72918;PMS7003;68407;55.694;26.994;2023-07-02T03:42:53;1.6;1.4;1.2
72918;PMS7003;68407;55.694;26.994;2023-07-02T03:47:37;2.4;1.8;1.6
72918;PMS7003;68407;55.694;26.994;2023-07-02T03:52:22;2.2;2;1.4
72918;PMS7003;68407;55.694;26.994;2023-07-02T03:57:53;1.8;1.6;1
72918;PMS7003;68407;55.694;26.994;2023-07-02T04:02:29;1.8;1.4;1.2
72918;PMS7003;68407;55.694;26.994;2023-07-02T04:07:13;3.3;2;1.5
72918;PMS7003;68407;55.694;26.994;2023-07-02T04:12:43;1.2;1.2;1
72918;PMS7003;68407;55.694;26.994;2023-07-02T04:17:53;1.6;1.6;1.2
72918;PMS7003;68407;55.694;26.994;2023-07-02T04:22:54;2.8;1.4;1.2
72918;PMS7003;68407;55.694;26.994;2023-07-02T04:27:53;2.6;1.6;1.2
72918;PMS7003;68407;55.694;26.994;2023-07-02T04:32:54;2;1.8;1.8
72918;PMS7003;68407;55.694;26.994;2023-07-02T04:37:29;2.6;2.2;2
72918;PMS7003;68407;55.694;26.994;2023-07-02T04:42:38;2.6;2.4;1.8
72918;PMS7003;68407;55.694;26.994;2023-07-02T04:47:37;2;1.6;1.4
72918;PMS7003;68407;55.694;26.994;2023-07-02T04:52:54;2.2;2;1.8
72918;PMS7003;68407;55.694;26.994;2023-07-02T04:57:37;3.4;2.8;2.2
72918;PMS7003;68407;55.694;26.994;2023-07-02T05:02:27;3.2;2.6;1.8
72918;PMS7003;68407;55.694;26.994;2023-07-02T05:07:54;2;1.8;1.5
72918;PMS7003;68407;55.694;26.994;2023-07-02T05:12:27;2.4;2.2;1.6
72918;PMS7003;68407;55.694;26.994;2023-07-02T05:17:14;2.4;2.4;2.2
72918;PMS7003;68407;55.694;26.994;2023-07-02T05:22:54;2;1.8;1.6
72918;PMS7003;68407;55.694;26.994;2023-07-02T05:27:30;2.8;2;1.8
72918;PMS7003;68407;55.694;26.994;2023-07-02T05:32:38;1.4;1.4;1.2
72918;PMS7003;68407;55.694;26.994;2023-07-02T05:37:38;2;1.8;1
72918;PMS7003;68407;55.694;26.994;2023-07-02T05:42:06;1.4;1;1
72918;PMS7003;68407;55.694;26.994;2023-07-02T05:47:14;1.6;1.4;0.8
72918;PMS7003;68407;55.694;26.994;2023-07-02T05:52:06;2.2;1.8;1.4
72918;PMS7003;68407;55.694;26.994;2023-07-02T05:57:14;2;1.2;1.2
72918;PMS7003;68407;55.694;26.994;2023-07-02T06:02:18;2.2;2;1.8
72918;PMS7003;68407;55.694;26.994;2023-07-02T06:07:38;2;1.6;1.4
72918;PMS7003;68407;55.694;26.994;2023-07-02T06:12:54;2.5;1.8;1.3
72918;PMS7003;68407;55.694;26.994;2023-07-02T06:17:28;3.6;2.2;1.8
72918;PMS7003;68407;55.694;26.994;2023-07-02T06:22:14;3.4;3;2.4
72918;PMS7003;68407;55.694;26.994;2023-07-02T06:27:38;5.4;4;3.2
72918;PMS7003;68407;55.694;26.994;2023-07-02T06:32:22;5.4;4.2;3.6
72918;PMS7003;68407;55.694;26.994;2023-07-02T06:37:06;4.8;4.4;3.6
72918;PMS7003;68407;55.694;26.994;2023-07-02T06:42:28;4.4;2.6;1.8
72918;PMS7003;68407;55.694;26.994;2023-07-02T06:47:44;2;1.6;1.2
72918;PMS7003;68407;55.694;26.994;2023-07-02T06:52:14;3.2;2.4;1.8
72918;PMS7003;68407;55.694;26.994;2023-07-02T06:57:06;2.8;2.2;1.2
72918;PMS7003;68407;55.694;26.994;2023-07-02T07:02:54;2.4;2.2;1.6
72918;PMS7003;68407;55.694;26.994;2023-07-02T07:07:22;3.4;2.8;2.2
72918;PMS7003;68407;55.694;26.994;2023-07-02T07:12:38;3.8;2;1.3
72918;PMS7003;68407;55.694;26.994;2023-07-02T07:17:06;3;2.4;2.2
72918;PMS7003;68407;55.694;26.994;2023-07-02T07:22:54;4;3;2.4
72918;PMS7003;68407;55.694;26.994;2023-07-02T07:27:20;4.8;4.2;3
72918;PMS7003;68407;55.694;26.994;2023-07-02T07:32:22;5;3.8;3.2
72918;PMS7003;68407;55.694;26.994;2023-07-02T07:37:38;4.2;3.2;2.4
72918;PMS7003;68407;55.694;26.994;2023-07-02T07:42:44;2.6;2.4;2
72918;PMS7003;68407;55.694;26.994;2023-07-02T07:47:54;2.2;2;1.6
72918;PMS7003;68407;55.694;26.994;2023-07-02T07:52:28;3.2;2.8;2
72918;PMS7003;68407;55.694;26.994;2023-07-02T07:57:14;2.4;2;1.6
72918;PMS7003;68407;55.694;26.994;2023-07-02T08:02:06;2.4;2;1.4
72918;PMS7003;68407;55.694;26.994;2023-07-02T08:07:54;2.8;2.4;2
72918;PMS7003;68407;55.694;26.994;2023-07-02T08:12:38;3.5;2.8;2.3
72918;PMS7003;68407;55.694;26.994;2023-07-02T08:17:44;3.8;2.6;2
72918;PMS7003;68407;55.694;26.994;2023-07-02T08:22:54;4;3.4;3.2
72918;PMS7003;68407;55.694;26.994;2023-07-02T08:27:38;4.6;4.2;3.4
72918;PMS7003;68407;55.694;26.994;2023-07-02T08:32:06;4.4;4;2.8
72918;PMS7003;68407;55.694;26.994;2023-07-02T08:37:06;6.2;5;4
72918;PMS7003;68407;55.694;26.994;2023-07-02T08:42:40;5.2;4.6;3.6
72918;PMS7003;68407;55.694;26.994;2023-07-02T08:47:52;5.4;5;4
72918;PMS7003;68407;55.694;26.994;2023-07-02T08:52:54;4.8;4.2;3.2
72918;PMS7003;68407;55.694;26.994;2023-07-02T08:57:54;4.6;3.4;2.4
72918;PMS7003;68407;55.694;26.994;2023-07-02T09:02:38;3.8;2.8;2.4
72918;PMS7003;68407;55.694;26.994;2023-07-02T09:07:14;4.4;4;3
72918;PMS7003;68407;55.694;26.994;2023-07-02T09:12:38;7;4.8;4
72918;PMS7003;68407;55.694;26.994;2023-07-02T09:17:54;5.4;4.2;3.2
72918;PMS7003;68407;55.694;26.994;2023-07-02T09:22:38;4.2;3.8;2.8
72918;PMS7003;68407;55.694;26.994;2023-07-02T09:27:35;4.2;3.6;3
72918;PMS7003;68407;55.694;26.994;2023-07-02T09:32:54;3;3;2
72918;PMS7003;68407;55.694;26.994;2023-07-02T09:37:28;3.2;3;2.6
72918;PMS7003;68407;55.694;26.994;2023-07-02T09:42:06;3.4;2.2;2.2
72918;PMS7003;68407;55.694;26.994;2023-07-02T09:47:14;5.8;4.4;4
72918;PMS7003;68407;55.694;26.994;2023-07-02T09:52:38;5.8;4.4;3.6
72918;PMS7003;68407;55.694;26.994;2023-07-02T09:57:38;6.2;4.6;3.6
72918;PMS7003;68407;55.694;26.994;2023-07-02T10:02:38;4.4;3.8;3
72918;PMS7003;68407;55.694;26.994;2023-07-02T10:07:25;6.2;5;3.8
72918;PMS7003;68407;55.694;26.994;2023-07-02T10:12:15;4.5;3.3;2.8
72918;PMS7003;68407;55.694;26.994;2023-07-02T10:17:06;5.2;4.8;3.6
72918;PMS7003;68407;55.694;26.994;2023-07-02T10:22:22;4;3.4;2.6
72918;PMS7003;68407;55.694;26.994;2023-07-02T10:27:14;4;3.2;2.4
72918;PMS7003;68407;55.694;26.994;2023-07-02T10:32:44;4;3.4;2.8
72918;PMS7003;68407;55.694;26.994;2023-07-02T10:37:54;5.2;3.8;3
72918;PMS7003;68407;55.694;26.994;2023-07-02T10:42:06;5.2;3.8;3
72918;PMS7003;68407;55.694;26.994;2023-07-02T10:47:06;4.4;3.4;2.8
72918;PMS7003;68407;55.694;26.994;2023-07-02T10:52:54;4.4;3.8;3.2
72918;PMS7003;68407;55.694;26.994;2023-07-02T10:57:22;7.2;5.8;4.4
72918;PMS7003;68407;55.694;26.994;2023-07-02T11:02:07;7.8;6.6;5
72918;PMS7003;68407;55.694;26.994;2023-07-02T11:07:22;7.8;5.8;4.4
72918;PMS7003;68407;55.694;26.994;2023-07-02T11:12:44;5.6;5.2;4
72918;PMS7003;68407;55.694;26.994;2023-07-02T11:17:14;5.5;4.8;4
72918;PMS7003;68407;55.694;26.994;2023-07-02T11:22:06;6.2;5.2;4.2
72918;PMS7003;68407;55.694;26.994;2023-07-02T11:28:01;6.2;5;3.8
72918;PMS7003;68407;55.694;26.994;2023-07-02T11:32:47;6.4;4.8;3.8
72918;PMS7003;68407;55.694;26.994;2023-07-02T11:37:14;6.2;6.2;4.8
72918;PMS7003;68407;55.694;26.994;2023-07-02T11:42:20;6.4;5.4;4.6
72918;PMS7003;68407;55.694;26.994;2023-07-02T11:47:54;8;6.2;4.8
72918;PMS7003;68407;55.694;26.994;2023-07-02T11:52:06;7.6;6;5
72918;PMS7003;68407;55.694;26.994;2023-07-02T11:57:06;7.4;6.2;4.6
72918;PMS7003;68407;55.694;26.994;2023-07-02T12:02:38;7.6;7.2;5.4
72918;PMS7003;68407;55.694;26.994;2023-07-02T12:07:44;6.2;5.8;4.6
72918;PMS7003;68407;55.694;26.994;2023-07-02T12:12:54;6.4;5.2;4.4
72918;PMS7003;68407;55.694;26.994;2023-07-02T12:17:28;6.8;6;4.8
72918;PMS7003;68407;55.694;26.994;2023-07-02T12:22:28;10;8;5.6
72918;PMS7003;68407;55.694;26.994;2023-07-02T12:27:14;12.2;10.8;7.8
72918;PMS7003;68407;55.694;26.994;2023-07-02T12:32:54;10.6;8.8;6.6
72918;PMS7003;68407;55.694;26.994;2023-07-02T12:37:45;9;8;6
72918;PMS7003;68407;55.694;26.994;2023-07-02T12:42:22;11.4;9;7.4
72918;PMS7003;68407;55.694;26.994;2023-07-02T12:47:54;9.2;8;6.6
72918;PMS7003;68407;55.694;26.994;2023-07-02T12:52:38;8.4;7.2;6.2
72918;PMS7003;68407;55.694;26.994;2023-07-02T12:57:36;9.4;8.4;6.4
72918;PMS7003;68407;55.694;26.994;2023-07-02T13:02:06;8;7.4;5.6
72918;PMS7003;68407;55.694;26.994;2023-07-02T13:07:54;8.2;7.6;5.8
72918;PMS7003;68407;55.694;26.994;2023-07-02T13:12:54;10;8.2;6
72918;PMS7003;68407;55.694;26.994;2023-07-02T13:17:54;9;8.3;6.3
72918;PMS7003;68407;55.694;26.994;2023-07-02T13:22:54;8;6.6;5.4
72918;PMS7003;68407;55.694;26.994;2023-07-02T13:27:22;8.2;7.6;5.8
72918;PMS7003;68407;55.694;26.994;2023-07-02T13:32:22;9.8;6.8;5.6
72918;PMS7003;68407;55.694;26.994;2023-07-02T13:37:38;8.6;7.8;6.2
72918;PMS7003;68407;55.694;26.994;2023-07-02T13:42:54;9.8;8.8;7
72918;PMS7003;68407;55.694;26.994;2023-07-02T13:47:38;9;7;5.8
72918;PMS7003;68407;55.694;26.994;2023-07-02T13:52:06;8.8;7.6;6
72918;PMS7003;68407;55.694;26.994;2023-07-02T13:57:52;8.4;7.6;6.2
72918;PMS7003;68407;55.694;26.994;2023-07-02T14:02:06;10;8.4;6.2
72918;PMS7003;68407;55.694;26.994;2023-07-02T14:07:38;9.4;7.8;6.2
72918;PMS7003;68407;55.694;26.994;2023-07-02T14:12:22;10.6;8.8;7
72918;PMS7003;68407;55.694;26.994;2023-07-02T14:17:38;8;7.5;6
72918;PMS7003;68407;55.694;26.994;2023-07-02T14:22:38;27.4;22.4;15
72918;PMS7003;68407;55.694;26.994;2023-07-02T14:27:38;12.2;10.4;7.4
72918;PMS7003;68407;55.694;26.994;2023-07-02T14:32:06;15.6;13;9.6
72918;PMS7003;68407;55.694;26.994;2023-07-02T14:37:06;14.8;12;9.6
72918;PMS7003;68407;55.694;26.994;2023-07-02T14:42:14;10.2;9.2;7
72918;PMS7003;68407;55.694;26.994;2023-07-02T14:47:22;9;8.8;6.6
72918;PMS7003;68407;55.694;26.994;2023-07-02T14:52:20;7.4;6.8;5.2
72918;PMS7003;68407;55.694;26.994;2023-07-02T14:57:44;9.4;8;6.4
72918;PMS7003;68407;55.694;26.994;2023-07-02T15:02:54;10.6;9.2;6.8
72918;PMS7003;68407;55.694;26.994;2023-07-02T15:07:06;11;8.8;6.8
72918;PMS7003;68407;55.694;26.994;2023-07-02T15:12:28;10.8;10;7.8
72918;PMS7003;68407;55.694;26.994;2023-07-02T15:17:54;10.5;10.3;8
72918;PMS7003;68407;55.694;26.994;2023-07-02T15:22:14;10.8;9.2;7.2
72918;PMS7003;68407;55.694;26.994;2023-07-02T15:27:28;11.8;10.2;7.8
72918;PMS7003;68407;55.694;26.994;2023-07-02T15:32:28;9.8;8.4;7.2
72918;PMS7003;68407;55.694;26.994;2023-07-02T15:37:22;10.4;9.8;7.8
72918;PMS7003;68407;55.694;26.994;2023-07-02T15:42:14;10.6;8.8;6.8
72918;PMS7003;68407;55.694;26.994;2023-07-02T15:47:20;12.4;10.4;8.2
72918;PMS7003;68407;55.694;26.994;2023-07-02T15:52:54;11.2;10.2;8.2
72918;PMS7003;68407;55.694;26.994;2023-07-02T15:57:42;18;15.2;11.4
72918;PMS7003;68407;55.694;26.994;2023-07-02T16:02:38;12;10.4;8.4
72918;PMS7003;68407;55.694;26.994;2023-07-02T16:07:06;12.4;11.2;9
72918;PMS7003;68407;55.694;26.994;2023-07-02T16:12:54;11.2;9.4;7.6
72918;PMS7003;68407;55.694;26.994;2023-07-02T16:17:06;6.4;5.4;4.4
72918;PMS7003;68407;55.694;26.994;2023-07-02T16:22:06;5.3;4.5;3.8
72918;PMS7003;68407;55.694;26.994;2023-07-02T16:27:24;6;5.4;4.4
72918;PMS7003;68407;55.694;26.994;2023-07-02T16:32:44;6.4;5.2;4.6
72918;PMS7003;68407;55.694;26.994;2023-07-02T16:37:54;5;4;3.4
72918;PMS7003;68407;55.694;26.994;2023-07-02T16:42:50;2.6;1.6;1.4
72918;PMS7003;68407;55.694;26.994;2023-07-02T16:47:06;2.6;2.2;1.8
72918;PMS7003;68407;55.694;26.994;2023-07-02T16:52:14;10.6;8.6;6.4
72918;PMS7003;68407;55.694;26.994;2023-07-02T16:57:54;16;13.4;8.8
72918;PMS7003;68407;55.694;26.994;2023-07-02T17:02:38;2;1.6;1
72918;PMS7003;68407;55.694;26.994;2023-07-02T17:07:44;1.4;1.2;0.8
72918;PMS7003;68407;55.694;26.994;2023-07-02T17:12:54;3.2;2.2;1.6
72918;PMS7003;68407;55.694;26.994;2023-07-02T17:17:38;3;2.4;2
72918;PMS7003;68407;55.694;26.994;2023-07-02T17:22:06;10;8.3;5.3
72918;PMS7003;68407;55.694;26.994;2023-07-02T17:27:15;3.2;2.4;2.2
72918;PMS7003;68407;55.694;26.994;2023-07-02T17:32:52;2.2;1.8;1.6
72918;PMS7003;68407;55.694;26.994;2023-07-02T17:37:54;3;2.2;1.8
72918;PMS7003;68407;55.694;26.994;2023-07-02T17:42:54;4.4;3.6;3.4
72918;PMS7003;68407;55.694;26.994;2023-07-02T17:47:54;5;4.6;3.6
72918;PMS7003;68407;55.694;26.994;2023-07-02T17:52:30;4.4;3.6;3
72918;PMS7003;68407;55.694;26.994;2023-07-02T17:57:38;11.4;10.2;7.4
72918;PMS7003;68407;55.694;26.994;2023-07-02T18:02:38;84.8;71;41.6
72918;PMS7003;68407;55.694;26.994;2023-07-02T18:07:54;48.6;38.4;24.2
72918;PMS7003;68407;55.694;26.994;2023-07-02T18:12:54;38.8;32.2;21.8
72918;PMS7003;68407;55.694;26.994;2023-07-02T18:17:28;43;33.4;20.8
72918;PMS7003;68407;55.694;26.994;2023-07-02T18:22:54;15.5;12.8;9.8
72918;PMS7003;68407;55.694;26.994;2023-07-02T18:27:07;8.6;8.4;6.8
72918;PMS7003;68407;55.694;26.994;2023-07-02T18:32:14;14;12.2;9.8
72918;PMS7003;68407;55.694;26.994;2023-07-02T18:37:22;19;18;13.6
72918;PMS7003;68407;55.694;26.994;2023-07-02T18:42:38;14.2;12;9.2
72918;PMS7003;68407;55.694;26.994;2023-07-02T18:47:38;8.8;7.6;5.8
72918;PMS7003;68407;55.694;26.994;2023-07-02T18:52:16;13;11;8
72918;PMS7003;68407;55.694;26.994;2023-07-02T18:57:20;32;27.6;19.2
72918;PMS7003;68407;55.694;26.994;2023-07-02T19:02:14;36.2;29.6;20
72918;PMS7003;68407;55.694;26.994;2023-07-02T19:07:54;23.6;20.4;15.2
72918;PMS7003;68407;55.694;26.994;2023-07-02T19:12:38;17.6;15.6;11.8
72918;PMS7003;68407;55.694;26.994;2023-07-02T19:17:28;19.2;17;12.4
72918;PMS7003;68407;55.694;26.994;2023-07-02T19:22:45;19;17.8;12.3
72918;PMS7003;68407;55.694;26.994;2023-07-02T19:27:54;17.6;16.2;10.4
72918;PMS7003;68407;55.694;26.994;2023-07-02T19:32:23;14.2;12;8.6
72918;PMS7003;68407;55.694;26.994;2023-07-02T19:37:14;10.8;9.2;7.2
72918;PMS7003;68407;55.694;26.994;2023-07-02T19:42:54;12.2;10.6;8.4
72918;PMS7003;68407;55.694;26.994;2023-07-02T19:47:22;10.6;9.8;7.8
72918;PMS7003;68407;55.694;26.994;2023-07-02T19:52:15;10.8;9.6;7
72918;PMS7003;68407;55.694;26.994;2023-07-02T19:57:28;8;7.2;5.2
72918;PMS7003;68407;55.694;26.994;2023-07-02T20:02:08;7;6.8;4.6
72918;PMS7003;68407;55.694;26.994;2023-07-02T20:07:14;9.4;8;5.6
72918;PMS7003;68407;55.694;26.994;2023-07-02T20:12:30;6.2;4.8;3.8
72918;PMS7003;68407;55.694;26.994;2023-07-02T20:17:54;6;4.8;3.8
72918;PMS7003;68407;55.694;26.994;2023-07-02T20:22:44;5;4.3;3.5
72918;PMS7003;68407;55.694;26.994;2023-07-02T20:27:14;5.6;4.6;3.6
72918;PMS7003;68407;55.694;26.994;2023-07-02T20:32:21;5.2;3.6;3
72918;PMS7003;68407;55.694;26.994;2023-07-02T20:37:54;4.8;3.6;2.6
72918;PMS7003;68407;55.694;26.994;2023-07-02T20:42:14;4.8;4.4;3.6
72918;PMS7003;68407;55.694;26.994;2023-07-02T20:47:07;4.6;4;3.4
72918;PMS7003;68407;55.694;26.994;2023-07-02T20:52:38;6.8;5.6;4.2
72918;PMS7003;68407;55.694;26.994;2023-07-02T20:57:16;6.2;5;4
72918;PMS7003;68407;55.694;26.994;2023-07-02T21:02:54;4.6;3.6;3.2
72918;PMS7003;68407;55.694;26.994;2023-07-02T21:07:06;4.6;4;3
72918;PMS7003;68407;55.694;26.994;2023-07-02T21:12:06;3.8;2.8;1.8
72918;PMS7003;68407;55.694;26.994;2023-07-02T21:17:20;3;2.8;1.8
72918;PMS7003;68407;55.694;26.994;2023-07-02T21:22:54;6.3;4.3;3.5
72918;PMS7003;68407;55.694;26.994;2023-07-02T21:27:38;10.8;8.6;5.8
72918;PMS7003;68407;55.694;26.994;2023-07-02T21:32:46;4.8;3.6;2.6
72918;PMS7003;68407;55.694;26.994;2023-07-02T21:37:54;4;2.8;2
72918;PMS7003;68407;55.694;26.994;2023-07-02T21:42:38;5;3.8;3
72918;PMS7003;68407;55.694;26.994;2023-07-02T21:47:06;4;3.2;2.4
72918;PMS7003;68407;55.694;26.994;2023-07-02T21:52:06;7.4;5.2;4.2
72918;PMS7003;68407;55.694;26.994;2023-07-02T21:57:32;3.6;3.4;2.6
72918;PMS7003;68407;55.694;26.994;2023-07-02T22:02:54;4.6;2.6;2.2
72918;PMS7003;68407;55.694;26.994;2023-07-02T22:07:54;6.4;4.2;2.8
72918;PMS7003;68407;55.694;26.994;2023-07-02T22:12:54;5.2;4.4;2.8
72918;PMS7003;68407;55.694;26.994;2023-07-02T22:17:38;5.2;4.6;3.4
72918;PMS7003;68407;55.694;26.994;2023-07-02T22:22:14;3.6;2.8;1.8
72918;PMS7003;68407;55.694;26.994;2023-07-02T22:27:38;3.8;2.5;1.8
72918;PMS7003;68407;55.694;26.994;2023-07-02T22:32:54;5.2;3.6;2.6
72918;PMS7003;68407;55.694;26.994;2023-07-02T22:37:38;5.8;3.2;2
72918;PMS7003;68407;55.694;26.994;2023-07-02T22:42:28;3.2;2;0.8
72918;PMS7003;68407;55.694;26.994;2023-07-02T22:47:54;3.8;2.4;1.8
72918;PMS7003;68407;55.694;26.994;2023-07-02T22:52:28;3.6;2.4;2
72918;PMS7003;68407;55.694;26.994;2023-07-02T22:57:14;5;2.6;1.8
72918;PMS7003;68407;55.694;26.994;2023-07-02T23:02:06;3.4;3;2.4
72918;PMS7003;68407;55.694;26.994;2023-07-02T23:07:28;4.2;1.8;1.8
72918;PMS7003;68407;55.694;26.994;2023-07-02T23:12:39;3;1.4;1.2
72918;PMS7003;68407;55.694;26.994;2023-07-02T23:17:39;3.2;2.2;1.4
72918;PMS7003;68407;55.694;26.994;2023-07-02T23:22:28;2.6;2.2;1.4
72918;PMS7003;68407;55.694;26.994;2023-07-02T23:27:18;4;1.8;1.3
72918;PMS7003;68407;55.694;26.994;2023-07-02T23:32:30;4;2;1.8
72918;PMS7003;68407;55.694;26.994;2023-07-02T23:37:14;2.2;1.6;0.8
72918;PMS7003;68407;55.694;26.994;2023-07-02T23:42:14;3.2;1.8;1.2
72918;PMS7003;68407;55.694;26.994;2023-07-02T23:47:36;3;2.2;1.4
72918;PMS7003;68407;55.694;26.994;2023-07-02T23:52:54;4.4;2.2;1.2
72918;PMS7003;68407;55.694;26.994;2023-07-02T23:57:06;2.4;1;0.8
